sensor_id;sensor_type;location;lat;lon;timestamp;P1;durP1;ratioP1;P2;durP2;ratioP2
49610;SDS011;35515;48.766;9.176;2023-12-20T00:00:25;2.05;;;1.50;;
49610;SDS011;35515;48.766;9.176;2023-12-20T00:02:52;2.15;;;1.63;;
49610;SDS011;35515;48.766;9.176;2023-12-20T00:05:18;4.43;;;1.80;;
49610;SDS011;35515;48.766;9.176;2023-12-20T00:07:45;2.65;;;1.70;;
49610;SDS011;35515;48.766;9.176;2023-12-20T00:10:11;2.42;;;1.98;;
49610;SDS011;35515;48.766;9.176;2023-12-20T00:12:39;2.05;;;1.60;;
49610;SDS011;35515;48.766;9.176;2023-12-20T00:15:06;1.75;;;1.40;;
49610;SDS011;35515;48.766;9.176;2023-12-20T00:17:33;2.20;;;1.50;;
49610;SDS011;35515;48.766;9.176;2023-12-20T00:20:00;1.88;;;1.50;;
49610;SDS011;35515;48.766;9.176;2023-12-20T00:22:27;2.22;;;1.40;;
49610;SDS011;35515;48.766;9.176;2023-12-20T00:24:53;2.38;;;1.55;;
49610;SDS011;35515;48.766;9.176;2023-12-20T00:27:20;2.42;;;1.90;;
49610;SDS011;35515;48.766;9.176;2023-12-20T00:29:47;1.75;;;1.45;;
49610;SDS011;35515;48.766;9.176;2023-12-20T00:32:15;2.00;;;1.70;;
49610;SDS011;35515;48.766;9.176;2023-12-20T00:34:41;3.00;;;1.60;;
49610;SDS011;35515;48.766;9.176;2023-12-20T00:37:08;3.83;;;1.70;;
49610;SDS011;35515;48.766;9.176;2023-12-20T00:39:35;2.20;;;1.60;;
49610;SDS011;35515;48.766;9.176;2023-12-20T00:42:01;2.15;;;1.55;;
49610;SDS011;35515;48.766;9.176;2023-12-20T00:44:28;1.83;;;1.50;;
49610;SDS011;35515;48.766;9.176;2023-12-20T00:46:56;2.95;;;1.50;;
49610;SDS011;35515;48.766;9.176;2023-12-20T00:49:23;1.88;;;1.40;;
49610;SDS011;35515;48.766;9.176;2023-12-20T00:51:49;1.70;;;1.45;;
49610;SDS011;35515;48.766;9.176;2023-12-20T00:54:17;2.30;;;1.70;;
49610;SDS011;35515;48.766;9.176;2023-12-20T00:56:44;1.67;;;1.40;;
49610;SDS011;35515;48.766;9.176;2023-12-20T00:59:10;1.95;;;1.40;;
49610;SDS011;35515;48.766;9.176;2023-12-20T01:01:37;1.58;;;1.20;;
49610;SDS011;35515;48.766;9.176;2023-12-20T01:04:05;2.45;;;1.23;;
49610;SDS011;35515;48.766;9.176;2023-12-20T01:06:32;1.83;;;1.52;;
49610;SDS011;35515;48.766;9.176;2023-12-20T01:08:58;2.75;;;1.50;;
49610;SDS011;35515;48.766;9.176;2023-12-20T01:11:25;1.50;;;1.20;;
49610;SDS011;35515;48.766;9.176;2023-12-20T01:13:52;1.40;;;1.25;;
49610;SDS011;35515;48.766;9.176;2023-12-20T01:16:18;1.35;;;1.20;;
49610;SDS011;35515;48.766;9.176;2023-12-20T01:18:45;2.42;;;1.30;;
49610;SDS011;35515;48.766;9.176;2023-12-20T01:21:12;1.75;;;1.35;;
49610;SDS011;35515;48.766;9.176;2023-12-20T01:23:39;2.42;;;1.40;;
49610;SDS011;35515;48.766;9.176;2023-12-20T01:26:05;1.67;;;1.50;;
49610;SDS011;35515;48.766;9.176;2023-12-20T01:28:32;1.85;;;1.40;;
49610;SDS011;35515;48.766;9.176;2023-12-20T01:30:58;1.90;;;1.50;;
49610;SDS011;35515;48.766;9.176;2023-12-20T01:33:25;1.85;;;1.60;;
49610;SDS011;35515;48.766;9.176;2023-12-20T01:35:51;2.05;;;1.40;;
49610;SDS011;35515;48.766;9.176;2023-12-20T01:38:19;2.35;;;1.50;;
49610;SDS011;35515;48.766;9.176;2023-12-20T01:40:46;1.52;;;1.30;;
49610;SDS011;35515;48.766;9.176;2023-12-20T01:43:12;2.28;;;1.45;;
49610;SDS011;35515;48.766;9.176;2023-12-20T01:45:39;1.45;;;1.30;;
49610;SDS011;35515;48.766;9.176;2023-12-20T01:48:06;2.15;;;1.30;;
49610;SDS011;35515;48.766;9.176;2023-12-20T01:50:34;1.67;;;1.40;;
49610;SDS011;35515;48.766;9.176;2023-12-20T01:53:02;2.38;;;1.58;;
49610;SDS011;35515;48.766;9.176;2023-12-20T01:55:31;1.63;;;1.20;;
49610;SDS011;35515;48.766;9.176;2023-12-20T01:58:00;2.55;;;2.13;;
49610;SDS011;35515;48.766;9.176;2023-12-20T02:00:27;2.38;;;1.52;;
49610;SDS011;35515;48.766;9.176;2023-12-20T02:02:55;2.03;;;1.50;;
49610;SDS011;35515;48.766;9.176;2023-12-20T02:05:22;2.38;;;1.50;;
49610;SDS011;35515;48.766;9.176;2023-12-20T02:07:48;3.00;;;1.40;;
49610;SDS011;35515;48.766;9.176;2023-12-20T02:10:15;1.80;;;1.30;;
49610;SDS011;35515;48.766;9.176;2023-12-20T02:12:43;2.47;;;1.77;;
49610;SDS011;35515;48.766;9.176;2023-12-20T02:15:10;2.45;;;1.60;;
49610;SDS011;35515;48.766;9.176;2023-12-20T02:17:36;2.92;;;1.42;;
49610;SDS011;35515;48.766;9.176;2023-12-20T02:20:05;2.70;;;1.90;;
49610;SDS011;35515;48.766;9.176;2023-12-20T02:22:33;1.88;;;1.50;;
49610;SDS011;35515;48.766;9.176;2023-12-20T02:25:00;1.65;;;1.38;;
49610;SDS011;35515;48.766;9.176;2023-12-20T02:27:27;2.75;;;1.60;;
49610;SDS011;35515;48.766;9.176;2023-12-20T02:29:54;2.83;;;2.00;;
49610;SDS011;35515;48.766;9.176;2023-12-20T02:32:21;1.98;;;1.42;;
49610;SDS011;35515;48.766;9.176;2023-12-20T02:34:51;1.92;;;1.40;;
49610;SDS011;35515;48.766;9.176;2023-12-20T02:37:17;2.15;;;1.50;;
49610;SDS011;35515;48.766;9.176;2023-12-20T02:39:45;2.13;;;1.45;;
49610;SDS011;35515;48.766;9.176;2023-12-20T02:42:12;1.70;;;1.45;;
49610;SDS011;35515;48.766;9.176;2023-12-20T02:44:38;3.42;;;1.40;;
49610;SDS011;35515;48.766;9.176;2023-12-20T02:47:05;1.70;;;1.60;;
49610;SDS011;35515;48.766;9.176;2023-12-20T02:49:31;2.22;;;1.52;;
49610;SDS011;35515;48.766;9.176;2023-12-20T02:51:58;1.92;;;1.70;;
49610;SDS011;35515;48.766;9.176;2023-12-20T02:54:24;2.78;;;1.92;;
49610;SDS011;35515;48.766;9.176;2023-12-20T02:56:52;3.15;;;1.80;;
49610;SDS011;35515;48.766;9.176;2023-12-20T02:59:19;3.60;;;2.08;;
49610;SDS011;35515;48.766;9.176;2023-12-20T03:01:45;3.40;;;2.15;;
49610;SDS011;35515;48.766;9.176;2023-12-20T03:04:12;2.33;;;1.80;;
49610;SDS011;35515;48.766;9.176;2023-12-20T03:06:39;3.03;;;1.80;;
49610;SDS011;35515;48.766;9.176;2023-12-20T03:09:05;2.95;;;1.70;;
49610;SDS011;35515;48.766;9.176;2023-12-20T03:11:32;3.58;;;1.98;;
49610;SDS011;35515;48.766;9.176;2023-12-20T03:14:00;2.13;;;1.25;;
49610;SDS011;35515;48.766;9.176;2023-12-20T03:16:26;2.22;;;1.55;;
49610;SDS011;35515;48.766;9.176;2023-12-20T03:18:53;3.40;;;1.67;;
49610;SDS011;35515;48.766;9.176;2023-12-20T03:21:19;1.58;;;1.17;;
49610;SDS011;35515;48.766;9.176;2023-12-20T03:23:46;1.85;;;1.35;;
49610;SDS011;35515;48.766;9.176;2023-12-20T03:26:13;4.03;;;1.73;;
49610;SDS011;35515;48.766;9.176;2023-12-20T03:28:39;3.05;;;1.60;;
49610;SDS011;35515;48.766;9.176;2023-12-20T03:31:07;3.05;;;1.73;;
49610;SDS011;35515;48.766;9.176;2023-12-20T03:33:35;2.08;;;1.60;;
49610;SDS011;35515;48.766;9.176;2023-12-20T03:36:02;3.05;;;1.50;;
49610;SDS011;35515;48.766;9.176;2023-12-20T03:38:28;2.95;;;1.50;;
49610;SDS011;35515;48.766;9.176;2023-12-20T03:40:55;3.50;;;1.67;;
49610;SDS011;35515;48.766;9.176;2023-12-20T03:43:21;1.58;;;1.27;;
49610;SDS011;35515;48.766;9.176;2023-12-20T03:45:48;1.67;;;0.98;;
49610;SDS011;35515;48.766;9.176;2023-12-20T03:48:15;2.22;;;1.15;;
49610;SDS011;35515;48.766;9.176;2023-12-20T03:50:41;1.60;;;1.10;;
49610;SDS011;35515;48.766;9.176;2023-12-20T03:53:08;0.85;;;0.80;;
49610;SDS011;35515;48.766;9.176;2023-12-20T03:55:35;2.00;;;1.00;;
49610;SDS011;35515;48.766;9.176;2023-12-20T03:58:01;1.48;;;0.90;;
49610;SDS011;35515;48.766;9.176;2023-12-20T04:00:28;1.55;;;0.98;;
49610;SDS011;35515;48.766;9.176;2023-12-20T04:02:55;1.42;;;1.00;;
49610;SDS011;35515;48.766;9.176;2023-12-20T04:05:23;1.40;;;1.10;;
49610;SDS011;35515;48.766;9.176;2023-12-20T04:07:49;1.05;;;1.05;;
49610;SDS011;35515;48.766;9.176;2023-12-20T04:10:16;1.05;;;0.70;;
49610;SDS011;35515;48.766;9.176;2023-12-20T04:12:43;0.80;;;0.80;;
49610;SDS011;35515;48.766;9.176;2023-12-20T04:15:09;1.90;;;1.27;;
49610;SDS011;35515;48.766;9.176;2023-12-20T04:17:37;0.80;;;0.80;;
49610;SDS011;35515;48.766;9.176;2023-12-20T04:20:04;0.65;;;0.65;;
49610;SDS011;35515;48.766;9.176;2023-12-20T04:22:32;1.08;;;0.80;;
49610;SDS011;35515;48.766;9.176;2023-12-20T04:25:01;1.25;;;0.70;;
49610;SDS011;35515;48.766;9.176;2023-12-20T04:27:28;0.98;;;0.68;;
49610;SDS011;35515;48.766;9.176;2023-12-20T04:29:55;0.80;;;0.80;;
49610;SDS011;35515;48.766;9.176;2023-12-20T04:32:21;0.90;;;0.63;;
49610;SDS011;35515;48.766;9.176;2023-12-20T04:34:48;1.45;;;0.80;;
49610;SDS011;35515;48.766;9.176;2023-12-20T04:37:14;0.85;;;0.85;;
49610;SDS011;35515;48.766;9.176;2023-12-20T04:39:42;1.77;;;0.80;;
49610;SDS011;35515;48.766;9.176;2023-12-20T04:42:09;0.80;;;0.80;;
49610;SDS011;35515;48.766;9.176;2023-12-20T04:44:35;0.80;;;0.80;;
49610;SDS011;35515;48.766;9.176;2023-12-20T04:47:02;0.80;;;0.80;;
49610;SDS011;35515;48.766;9.176;2023-12-20T04:49:28;0.55;;;0.55;;
49610;SDS011;35515;48.766;9.176;2023-12-20T04:51:55;1.38;;;0.68;;
49610;SDS011;35515;48.766;9.176;2023-12-20T04:54:22;0.60;;;0.60;;
49610;SDS011;35515;48.766;9.176;2023-12-20T04:56:50;0.90;;;0.88;;
49610;SDS011;35515;48.766;9.176;2023-12-20T04:59:17;0.70;;;0.70;;
49610;SDS011;35515;48.766;9.176;2023-12-20T05:01:43;0.70;;;0.70;;
49610;SDS011;35515;48.766;9.176;2023-12-20T05:04:10;0.80;;;0.80;;
49610;SDS011;35515;48.766;9.176;2023-12-20T05:06:36;0.70;;;0.70;;
49610;SDS011;35515;48.766;9.176;2023-12-20T05:09:03;0.80;;;0.60;;
49610;SDS011;35515;48.766;9.176;2023-12-20T05:11:29;0.60;;;0.60;;
49610;SDS011;35515;48.766;9.176;2023-12-20T05:13:57;0.73;;;0.73;;
49610;SDS011;35515;48.766;9.176;2023-12-20T05:16:23;0.70;;;0.70;;
49610;SDS011;35515;48.766;9.176;2023-12-20T05:18:50;0.82;;;0.80;;
49610;SDS011;35515;48.766;9.176;2023-12-20T05:21:17;0.75;;;0.75;;
49610;SDS011;35515;48.766;9.176;2023-12-20T05:23:44;0.88;;;0.70;;
49610;SDS011;35515;48.766;9.176;2023-12-20T05:26:11;1.92;;;1.17;;
49610;SDS011;35515;48.766;9.176;2023-12-20T05:28:37;1.85;;;1.00;;
49610;SDS011;35515;48.766;9.176;2023-12-20T05:31:05;2.72;;;1.70;;
49610;SDS011;35515;48.766;9.176;2023-12-20T05:33:32;1.20;;;1.10;;
49610;SDS011;35515;48.766;9.176;2023-12-20T05:35:58;0.90;;;0.88;;
49610;SDS011;35515;48.766;9.176;2023-12-20T05:38:25;1.15;;;0.80;;
49610;SDS011;35515;48.766;9.176;2023-12-20T05:40:51;0.82;;;0.82;;
49610;SDS011;35515;48.766;9.176;2023-12-20T05:43:18;0.70;;;0.70;;
49610;SDS011;35515;48.766;9.176;2023-12-20T05:45:44;0.80;;;0.77;;
49610;SDS011;35515;48.766;9.176;2023-12-20T05:48:12;0.88;;;0.80;;
49610;SDS011;35515;48.766;9.176;2023-12-20T05:50:39;0.88;;;0.70;;
49610;SDS011;35515;48.766;9.176;2023-12-20T05:53:05;0.70;;;0.70;;
49610;SDS011;35515;48.766;9.176;2023-12-20T05:55:32;1.13;;;0.80;;
49610;SDS011;35515;48.766;9.176;2023-12-20T05:57:59;2.17;;;0.80;;
49610;SDS011;35515;48.766;9.176;2023-12-20T06:00:25;1.25;;;0.80;;
49610;SDS011;35515;48.766;9.176;2023-12-20T06:02:52;0.75;;;0.73;;
49610;SDS011;35515;48.766;9.176;2023-12-20T06:05:20;1.67;;;1.00;;
49610;SDS011;35515;48.766;9.176;2023-12-20T06:07:47;1.42;;;0.75;;
49610;SDS011;35515;48.766;9.176;2023-12-20T06:10:15;1.00;;;0.90;;
49610;SDS011;35515;48.766;9.176;2023-12-20T06:12:42;1.17;;;0.80;;
49610;SDS011;35515;48.766;9.176;2023-12-20T06:15:09;1.85;;;0.93;;
49610;SDS011;35515;48.766;9.176;2023-12-20T06:17:35;2.58;;;0.90;;
49610;SDS011;35515;48.766;9.176;2023-12-20T06:20:03;0.80;;;0.80;;
49610;SDS011;35515;48.766;9.176;2023-12-20T06:22:34;2.03;;;1.10;;
49610;SDS011;35515;48.766;9.176;2023-12-20T06:25:00;2.17;;;1.35;;
49610;SDS011;35515;48.766;9.176;2023-12-20T06:27:27;1.67;;;1.20;;
49610;SDS011;35515;48.766;9.176;2023-12-20T06:29:54;1.77;;;1.20;;
49610;SDS011;35515;48.766;9.176;2023-12-20T06:32:21;0.70;;;0.70;;
49610;SDS011;35515;48.766;9.176;2023-12-20T06:34:48;1.35;;;1.08;;
49610;SDS011;35515;48.766;9.176;2023-12-20T06:37:15;3.65;;;1.40;;
49610;SDS011;35515;48.766;9.176;2023-12-20T06:39:43;2.72;;;1.20;;
49610;SDS011;35515;48.766;9.176;2023-12-20T06:42:09;1.33;;;1.13;;
49610;SDS011;35515;48.766;9.176;2023-12-20T06:44:36;3.08;;;1.02;;
49610;SDS011;35515;48.766;9.176;2023-12-20T06:47:02;1.77;;;1.00;;
49610;SDS011;35515;48.766;9.176;2023-12-20T06:49:29;1.27;;;1.05;;
49610;SDS011;35515;48.766;9.176;2023-12-20T06:51:56;1.10;;;1.05;;
49610;SDS011;35515;48.766;9.176;2023-12-20T06:54:22;1.50;;;1.30;;
49610;SDS011;35515;48.766;9.176;2023-12-20T06:56:50;2.50;;;1.25;;
49610;SDS011;35515;48.766;9.176;2023-12-20T06:59:16;1.92;;;1.23;;
49610;SDS011;35515;48.766;9.176;2023-12-20T07:01:47;1.85;;;0.98;;
49610;SDS011;35515;48.766;9.176;2023-12-20T07:04:14;2.05;;;1.00;;
49610;SDS011;35515;48.766;9.176;2023-12-20T07:06:41;1.08;;;0.98;;
49610;SDS011;35515;48.766;9.176;2023-12-20T07:09:08;2.70;;;1.30;;
49610;SDS011;35515;48.766;9.176;2023-12-20T07:11:35;1.80;;;1.33;;
49610;SDS011;35515;48.766;9.176;2023-12-20T07:14:03;1.42;;;1.33;;
49610;SDS011;35515;48.766;9.176;2023-12-20T07:16:29;2.25;;;1.25;;
49610;SDS011;35515;48.766;9.176;2023-12-20T07:18:56;1.20;;;1.10;;
49610;SDS011;35515;48.766;9.176;2023-12-20T07:21:23;2.17;;;1.10;;
49610;SDS011;35515;48.766;9.176;2023-12-20T07:23:49;1.13;;;1.00;;
49610;SDS011;35515;48.766;9.176;2023-12-20T07:26:16;1.10;;;0.90;;
49610;SDS011;35515;48.766;9.176;2023-12-20T07:28:44;2.22;;;1.20;;
49610;SDS011;35515;48.766;9.176;2023-12-20T07:31:12;1.77;;;1.00;;
49610;SDS011;35515;48.766;9.176;2023-12-20T07:33:38;1.55;;;1.10;;
49610;SDS011;35515;48.766;9.176;2023-12-20T07:36:05;1.15;;;1.05;;
49610;SDS011;35515;48.766;9.176;2023-12-20T07:38:32;3.60;;;1.40;;
49610;SDS011;35515;48.766;9.176;2023-12-20T07:40:58;2.63;;;1.70;;
49610;SDS011;35515;48.766;9.176;2023-12-20T07:43:25;3.92;;;1.60;;
49610;SDS011;35515;48.766;9.176;2023-12-20T07:45:52;2.78;;;1.85;;
49610;SDS011;35515;48.766;9.176;2023-12-20T07:48:19;3.97;;;2.50;;
49610;SDS011;35515;48.766;9.176;2023-12-20T07:50:46;3.80;;;2.38;;
49610;SDS011;35515;48.766;9.176;2023-12-20T07:53:12;2.45;;;2.20;;
49610;SDS011;35515;48.766;9.176;2023-12-20T07:55:39;2.78;;;2.22;;
49610;SDS011;35515;48.766;9.176;2023-12-20T07:58:05;3.22;;;2.50;;
49610;SDS011;35515;48.766;9.176;2023-12-20T08:00:32;4.15;;;2.45;;
49610;SDS011;35515;48.766;9.176;2023-12-20T08:02:58;3.28;;;2.30;;
49610;SDS011;35515;48.766;9.176;2023-12-20T08:05:29;3.45;;;2.58;;
49610;SDS011;35515;48.766;9.176;2023-12-20T08:07:56;4.68;;;2.67;;
49610;SDS011;35515;48.766;9.176;2023-12-20T08:10:23;3.58;;;3.10;;
49610;SDS011;35515;48.766;9.176;2023-12-20T08:12:49;5.40;;;2.92;;
49610;SDS011;35515;48.766;9.176;2023-12-20T08:15:16;3.10;;;2.30;;
49610;SDS011;35515;48.766;9.176;2023-12-20T08:17:42;3.85;;;2.50;;
49610;SDS011;35515;48.766;9.176;2023-12-20T08:20:09;3.72;;;2.63;;
49610;SDS011;35515;48.766;9.176;2023-12-20T08:22:38;4.88;;;3.22;;
49610;SDS011;35515;48.766;9.176;2023-12-20T08:25:04;4.88;;;3.13;;
49610;SDS011;35515;48.766;9.176;2023-12-20T08:27:31;3.60;;;2.97;;
49610;SDS011;35515;48.766;9.176;2023-12-20T08:29:58;5.38;;;2.95;;
49610;SDS011;35515;48.766;9.176;2023-12-20T08:32:25;4.53;;;2.88;;
49610;SDS011;35515;48.766;9.176;2023-12-20T08:34:52;3.97;;;2.97;;
49610;SDS011;35515;48.766;9.176;2023-12-20T08:37:18;4.97;;;3.20;;
49610;SDS011;35515;48.766;9.176;2023-12-20T08:39:46;4.47;;;2.53;;
49610;SDS011;35515;48.766;9.176;2023-12-20T08:42:13;3.22;;;2.50;;
49610;SDS011;35515;48.766;9.176;2023-12-20T08:44:39;7.53;;;2.60;;
49610;SDS011;35515;48.766;9.176;2023-12-20T08:47:06;3.20;;;2.60;;
49610;SDS011;35515;48.766;9.176;2023-12-20T08:49:32;7.68;;;3.53;;
49610;SDS011;35515;48.766;9.176;2023-12-20T08:51:59;3.05;;;2.53;;
49610;SDS011;35515;48.766;9.176;2023-12-20T08:54:25;4.82;;;3.30;;
49610;SDS011;35515;48.766;9.176;2023-12-20T08:56:53;5.50;;;3.00;;
49610;SDS011;35515;48.766;9.176;2023-12-20T08:59:20;3.60;;;2.80;;
49610;SDS011;35515;48.766;9.176;2023-12-20T09:01:46;4.20;;;2.95;;
49610;SDS011;35515;48.766;9.176;2023-12-20T09:04:13;3.63;;;2.80;;
49610;SDS011;35515;48.766;9.176;2023-12-20T09:06:40;5.75;;;3.50;;
49610;SDS011;35515;48.766;9.176;2023-12-20T09:09:06;4.85;;;2.78;;
49610;SDS011;35515;48.766;9.176;2023-12-20T09:11:35;5.40;;;2.90;;
49610;SDS011;35515;48.766;9.176;2023-12-20T09:14:03;7.93;;;3.25;;
49610;SDS011;35515;48.766;9.176;2023-12-20T09:16:29;4.55;;;3.28;;
49610;SDS011;35515;48.766;9.176;2023-12-20T09:18:56;4.90;;;3.30;;
49610;SDS011;35515;48.766;9.176;2023-12-20T09:21:23;9.15;;;3.67;;
49610;SDS011;35515;48.766;9.176;2023-12-20T09:23:49;4.35;;;2.80;;
49610;SDS011;35515;48.766;9.176;2023-12-20T09:26:16;4.85;;;3.17;;
49610;SDS011;35515;48.766;9.176;2023-12-20T09:28:43;5.68;;;3.30;;
49610;SDS011;35515;48.766;9.176;2023-12-20T09:31:11;4.50;;;3.03;;
49610;SDS011;35515;48.766;9.176;2023-12-20T09:33:38;4.50;;;3.08;;
49610;SDS011;35515;48.766;9.176;2023-12-20T09:36:04;3.63;;;2.90;;
49610;SDS011;35515;48.766;9.176;2023-12-20T09:38:31;5.57;;;2.95;;
49610;SDS011;35515;48.766;9.176;2023-12-20T09:40:58;5.55;;;4.00;;
49610;SDS011;35515;48.766;9.176;2023-12-20T09:43:26;7.10;;;2.92;;
49610;SDS011;35515;48.766;9.176;2023-12-20T09:45:54;4.90;;;2.70;;
49610;SDS011;35515;48.766;9.176;2023-12-20T09:48:28;10.23;;;3.08;;
49610;SDS011;35515;48.766;9.176;2023-12-20T09:50:56;6.82;;;3.45;;
49610;SDS011;35515;48.766;9.176;2023-12-20T09:53:22;7.50;;;3.30;;
49610;SDS011;35515;48.766;9.176;2023-12-20T09:55:54;3.65;;;2.17;;
49610;SDS011;35515;48.766;9.176;2023-12-20T09:58:23;2.70;;;2.08;;
49610;SDS011;35515;48.766;9.176;2023-12-20T10:00:50;5.70;;;2.40;;
49610;SDS011;35515;48.766;9.176;2023-12-20T10:03:17;5.82;;;2.22;;
49610;SDS011;35515;48.766;9.176;2023-12-20T10:05:50;4.78;;;2.33;;
49610;SDS011;35515;48.766;9.176;2023-12-20T10:08:20;6.65;;;2.33;;
49610;SDS011;35515;48.766;9.176;2023-12-20T10:10:47;6.00;;;2.33;;
49610;SDS011;35515;48.766;9.176;2023-12-20T10:13:14;8.05;;;2.97;;
49610;SDS011;35515;48.766;9.176;2023-12-20T10:15:41;5.65;;;1.88;;
49610;SDS011;35515;48.766;9.176;2023-12-20T10:18:08;3.40;;;2.53;;
49610;SDS011;35515;48.766;9.176;2023-12-20T10:20:34;3.95;;;2.55;;
49610;SDS011;35515;48.766;9.176;2023-12-20T10:23:02;7.75;;;2.88;;
49610;SDS011;35515;48.766;9.176;2023-12-20T10:25:30;3.47;;;1.88;;
49610;SDS011;35515;48.766;9.176;2023-12-20T10:30:42;8.13;;;2.35;;
49610;SDS011;35515;48.766;9.176;2023-12-20T10:33:09;6.03;;;1.80;;
49610;SDS011;35515;48.766;9.176;2023-12-20T10:35:35;8.00;;;3.47;;
49610;SDS011;35515;48.766;9.176;2023-12-20T10:38:05;6.78;;;2.22;;
49610;SDS011;35515;48.766;9.176;2023-12-20T10:40:34;5.40;;;2.22;;
49610;SDS011;35515;48.766;9.176;2023-12-20T10:43:02;3.38;;;1.90;;
49610;SDS011;35515;48.766;9.176;2023-12-20T10:45:30;4.95;;;1.90;;
49610;SDS011;35515;48.766;9.176;2023-12-20T10:47:56;5.32;;;2.15;;
49610;SDS011;35515;48.766;9.176;2023-12-20T10:50:24;5.40;;;2.33;;
49610;SDS011;35515;48.766;9.176;2023-12-20T10:52:52;6.18;;;2.30;;
49610;SDS011;35515;48.766;9.176;2023-12-20T10:55:22;5.65;;;2.30;;
49610;SDS011;35515;48.766;9.176;2023-12-20T10:57:49;4.55;;;2.17;;
49610;SDS011;35515;48.766;9.176;2023-12-20T11:00:17;8.18;;;2.20;;
49610;SDS011;35515;48.766;9.176;2023-12-20T11:02:44;3.50;;;2.38;;
49610;SDS011;35515;48.766;9.176;2023-12-20T11:05:13;8.63;;;2.35;;
49610;SDS011;35515;48.766;9.176;2023-12-20T11:07:52;5.85;;;2.80;;
49610;SDS011;35515;48.766;9.176;2023-12-20T11:10:26;5.32;;;2.30;;
49610;SDS011;35515;48.766;9.176;2023-12-20T11:12:57;4.88;;;2.00;;
49610;SDS011;35515;48.766;9.176;2023-12-20T11:15:30;5.70;;;1.90;;
49610;SDS011;35515;48.766;9.176;2023-12-20T11:17:57;5.80;;;1.95;;
49610;SDS011;35515;48.766;9.176;2023-12-20T11:20:34;8.27;;;2.58;;
49610;SDS011;35515;48.766;9.176;2023-12-20T11:23:02;5.35;;;2.10;;
49610;SDS011;35515;48.766;9.176;2023-12-20T11:25:31;4.60;;;2.70;;
49610;SDS011;35515;48.766;9.176;2023-12-20T11:28:12;9.30;;;2.72;;
49610;SDS011;35515;48.766;9.176;2023-12-20T11:30:42;5.30;;;2.67;;
49610;SDS011;35515;48.766;9.176;2023-12-20T11:33:12;4.10;;;2.00;;
49610;SDS011;35515;48.766;9.176;2023-12-20T11:35:39;8.50;;;2.60;;
49610;SDS011;35515;48.766;9.176;2023-12-20T11:38:07;3.67;;;1.90;;
49610;SDS011;35515;48.766;9.176;2023-12-20T11:40:36;6.28;;;1.98;;
49610;SDS011;35515;48.766;9.176;2023-12-20T11:43:03;4.53;;;1.90;;
49610;SDS011;35515;48.766;9.176;2023-12-20T11:45:30;5.32;;;2.47;;
49610;SDS011;35515;48.766;9.176;2023-12-20T11:47:57;4.43;;;2.20;;
49610;SDS011;35515;48.766;9.176;2023-12-20T11:50:24;3.17;;;2.00;;
49610;SDS011;35515;48.766;9.176;2023-12-20T11:52:51;6.38;;;2.17;;
49610;SDS011;35515;48.766;9.176;2023-12-20T11:55:19;6.30;;;2.20;;
49610;SDS011;35515;48.766;9.176;2023-12-20T11:57:47;4.70;;;2.58;;
49610;SDS011;35515;48.766;9.176;2023-12-20T12:00:14;6.05;;;2.05;;
49610;SDS011;35515;48.766;9.176;2023-12-20T12:02:41;5.55;;;2.17;;
49610;SDS011;35515;48.766;9.176;2023-12-20T12:05:08;5.95;;;2.35;;
49610;SDS011;35515;48.766;9.176;2023-12-20T12:07:35;4.63;;;2.20;;
49610;SDS011;35515;48.766;9.176;2023-12-20T12:10:01;7.30;;;3.55;;
49610;SDS011;35515;48.766;9.176;2023-12-20T12:12:29;6.90;;;2.45;;
49610;SDS011;35515;48.766;9.176;2023-12-20T12:14:57;4.38;;;2.42;;
49610;SDS011;35515;48.766;9.176;2023-12-20T12:17:24;5.57;;;2.40;;
49610;SDS011;35515;48.766;9.176;2023-12-20T12:19:51;7.45;;;2.63;;
49610;SDS011;35515;48.766;9.176;2023-12-20T12:22:27;4.93;;;2.60;;
49610;SDS011;35515;48.766;9.176;2023-12-20T12:24:54;8.23;;;3.20;;
49610;SDS011;35515;48.766;9.176;2023-12-20T12:27:20;7.07;;;2.80;;
49610;SDS011;35515;48.766;9.176;2023-12-20T12:30:00;8.60;;;3.25;;
49610;SDS011;35515;48.766;9.176;2023-12-20T12:32:28;9.40;;;3.25;;
49610;SDS011;35515;48.766;9.176;2023-12-20T12:34:55;12.02;;;4.00;;
49610;SDS011;35515;48.766;9.176;2023-12-20T12:37:22;5.45;;;2.65;;
49610;SDS011;35515;48.766;9.176;2023-12-20T12:39:49;7.43;;;2.85;;
49610;SDS011;35515;48.766;9.176;2023-12-20T12:42:16;10.60;;;2.95;;
49610;SDS011;35515;48.766;9.176;2023-12-20T12:44:42;8.48;;;3.22;;
49610;SDS011;35515;48.766;9.176;2023-12-20T12:47:10;7.50;;;3.70;;
49610;SDS011;35515;48.766;9.176;2023-12-20T12:49:37;7.30;;;2.75;;
49610;SDS011;35515;48.766;9.176;2023-12-20T12:52:05;7.28;;;3.45;;
49610;SDS011;35515;48.766;9.176;2023-12-20T12:54:32;5.50;;;2.33;;
49610;SDS011;35515;48.766;9.176;2023-12-20T12:56:58;6.93;;;3.50;;
49610;SDS011;35515;48.766;9.176;2023-12-20T12:59:25;6.30;;;2.92;;
49610;SDS011;35515;48.766;9.176;2023-12-20T13:01:52;6.90;;;2.55;;
49610;SDS011;35515;48.766;9.176;2023-12-20T13:04:20;5.78;;;2.42;;
49610;SDS011;35515;48.766;9.176;2023-12-20T13:06:46;7.05;;;2.78;;
49610;SDS011;35515;48.766;9.176;2023-12-20T13:09:13;7.53;;;2.53;;
49610;SDS011;35515;48.766;9.176;2023-12-20T13:11:40;5.75;;;2.80;;
49610;SDS011;35515;48.766;9.176;2023-12-20T13:14:06;9.20;;;4.15;;
49610;SDS011;35515;48.766;9.176;2023-12-20T13:16:35;7.32;;;3.25;;
49610;SDS011;35515;48.766;9.176;2023-12-20T13:19:02;7.07;;;3.30;;
49610;SDS011;35515;48.766;9.176;2023-12-20T13:21:30;7.75;;;2.50;;
49610;SDS011;35515;48.766;9.176;2023-12-20T13:23:57;3.28;;;2.10;;
49610;SDS011;35515;48.766;9.176;2023-12-20T13:26:23;6.97;;;2.53;;
49610;SDS011;35515;48.766;9.176;2023-12-20T13:28:50;6.60;;;2.53;;
49610;SDS011;35515;48.766;9.176;2023-12-20T13:31:16;5.45;;;2.20;;
49610;SDS011;35515;48.766;9.176;2023-12-20T13:33:43;5.40;;;2.05;;
49610;SDS011;35515;48.766;9.176;2023-12-20T13:36:09;8.27;;;2.10;;
49610;SDS011;35515;48.766;9.176;2023-12-20T13:38:37;7.15;;;2.33;;
49610;SDS011;35515;48.766;9.176;2023-12-20T13:41:04;5.88;;;2.33;;
49610;SDS011;35515;48.766;9.176;2023-12-20T13:43:31;3.85;;;1.83;;
49610;SDS011;35515;48.766;9.176;2023-12-20T13:45:57;4.53;;;2.08;;
49610;SDS011;35515;48.766;9.176;2023-12-20T13:48:24;4.53;;;1.80;;
49610;SDS011;35515;48.766;9.176;2023-12-20T13:50:50;2.95;;;1.85;;
49610;SDS011;35515;48.766;9.176;2023-12-20T13:53:17;6.80;;;2.20;;
49610;SDS011;35515;48.766;9.176;2023-12-20T13:55:45;4.20;;;1.65;;
49610;SDS011;35515;48.766;9.176;2023-12-20T13:58:12;4.65;;;1.70;;
49610;SDS011;35515;48.766;9.176;2023-12-20T14:00:38;5.60;;;2.08;;
49610;SDS011;35515;48.766;9.176;2023-12-20T14:03:06;4.45;;;1.70;;
49610;SDS011;35515;48.766;9.176;2023-12-20T14:05:35;6.72;;;1.95;;
49610;SDS011;35515;48.766;9.176;2023-12-20T14:08:02;2.38;;;1.52;;
49610;SDS011;35515;48.766;9.176;2023-12-20T14:10:29;4.95;;;1.52;;
49610;SDS011;35515;48.766;9.176;2023-12-20T14:12:57;6.00;;;1.90;;
49610;SDS011;35515;48.766;9.176;2023-12-20T14:15:23;4.93;;;2.05;;
49610;SDS011;35515;48.766;9.176;2023-12-20T14:17:50;5.05;;;1.75;;
49610;SDS011;35515;48.766;9.176;2023-12-20T14:20:18;3.58;;;1.70;;
49610;SDS011;35515;48.766;9.176;2023-12-20T14:22:44;4.40;;;1.90;;
49610;SDS011;35515;48.766;9.176;2023-12-20T14:25:11;5.43;;;2.30;;
49610;SDS011;35515;48.766;9.176;2023-12-20T14:27:38;4.00;;;1.95;;
49610;SDS011;35515;48.766;9.176;2023-12-20T14:30:07;4.97;;;1.90;;
49610;SDS011;35515;48.766;9.176;2023-12-20T14:32:34;3.65;;;1.70;;
49610;SDS011;35515;48.766;9.176;2023-12-20T14:35:03;2.85;;;1.80;;
49610;SDS011;35515;48.766;9.176;2023-12-20T14:37:30;8.27;;;1.92;;
49610;SDS011;35515;48.766;9.176;2023-12-20T14:39:56;7.47;;;2.00;;
49610;SDS011;35515;48.766;9.176;2023-12-20T14:42:22;6.35;;;2.08;;
49610;SDS011;35515;48.766;9.176;2023-12-20T14:44:49;4.32;;;2.10;;
49610;SDS011;35515;48.766;9.176;2023-12-20T14:47:18;4.05;;;1.67;;
49610;SDS011;35515;48.766;9.176;2023-12-20T14:49:45;5.18;;;2.20;;